sensor_id;sensor_type;location;lat;lon;timestamp;P1;durP1;ratioP1;P2;durP2;ratioP2
65289;SDS011;51893;59.754;10.110;2023-04-05T00:00:30;2.70;;;1.60;;
65289;SDS011;51893;59.754;10.110;2023-04-05T00:03:12;3.90;;;1.60;;
65289;SDS011;51893;59.754;10.110;2023-04-05T00:05:39;2.40;;;1.90;;
65289;SDS011;51893;59.754;10.110;2023-04-05T00:08:06;4.10;;;1.90;;
65289;SDS011;51893;59.754;10.110;2023-04-05T00:10:43;2.50;;;2.10;;
65289;SDS011;51893;59.754;10.110;2023-04-05T00:13:10;3.30;;;2.00;;
65289;SDS011;51893;59.754;10.110;2023-04-05T00:15:36;6.50;;;1.70;;
65289;SDS011;51893;59.754;10.110;2023-04-05T00:18:03;3.50;;;1.50;;
65289;SDS011;51893;59.754;10.110;2023-04-05T00:20:30;4.10;;;1.70;;
65289;SDS011;51893;59.754;10.110;2023-04-05T00:22:56;2.50;;;1.40;;
65289;SDS011;51893;59.754;10.110;2023-04-05T00:25:25;4.10;;;1.90;;
65289;SDS011;51893;59.754;10.110;2023-04-05T00:27:54;3.00;;;1.50;;
65289;SDS011;51893;59.754;10.110;2023-04-05T00:30:21;4.90;;;1.60;;
65289;SDS011;51893;59.754;10.110;2023-04-05T00:32:48;4.60;;;2.00;;
65289;SDS011;51893;59.754;10.110;2023-04-05T00:35:16;1.60;;;1.50;;
65289;SDS011;51893;59.754;10.110;2023-04-05T00:37:43;5.10;;;1.90;;
65289;SDS011;51893;59.754;10.110;2023-04-05T00:40:10;2.70;;;1.60;;
65289;SDS011;51893;59.754;10.110;2023-04-05T00:42:39;3.30;;;1.50;;
65289;SDS011;51893;59.754;10.110;2023-04-05T00:45:06;2.50;;;1.60;;
65289;SDS011;51893;59.754;10.110;2023-04-05T00:47:33;7.50;;;1.70;;
65289;SDS011;51893;59.754;10.110;2023-04-05T00:50:02;1.80;;;1.60;;
65289;SDS011;51893;59.754;10.110;2023-04-05T00:52:29;10.50;;;1.90;;
65289;SDS011;51893;59.754;10.110;2023-04-05T00:54:57;7.40;;;4.50;;
65289;SDS011;51893;59.754;10.110;2023-04-05T00:57:25;3.60;;;2.60;;
65289;SDS011;51893;59.754;10.110;2023-04-05T00:59:52;6.60;;;2.20;;
65289;SDS011;51893;59.754;10.110;2023-04-05T01:02:31;3.90;;;1.50;;
65289;SDS011;51893;59.754;10.110;2023-04-05T01:05:34;5.40;;;1.90;;
65289;SDS011;51893;59.754;10.110;2023-04-05T01:11:07;5.00;;;1.60;;
65289;SDS011;51893;59.754;10.110;2023-04-05T01:13:35;3.70;;;1.30;;
65289;SDS011;51893;59.754;10.110;2023-04-05T01:16:01;4.50;;;2.10;;
65289;SDS011;51893;59.754;10.110;2023-04-05T01:18:28;5.60;;;2.70;;
65289;SDS011;51893;59.754;10.110;2023-04-05T01:27:39;4.20;;;1.90;;
65289;SDS011;51893;59.754;10.110;2023-04-05T01:30:33;2.00;;;1.00;;
65289;SDS011;51893;59.754;10.110;2023-04-05T01:33:16;2.00;;;1.00;;
65289;SDS011;51893;59.754;10.110;2023-04-05T01:36:00;6.40;;;1.90;;
65289;SDS011;51893;59.754;10.110;2023-04-05T01:38:38;3.60;;;2.10;;
65289;SDS011;51893;59.754;10.110;2023-04-05T01:41:07;6.50;;;1.80;;
65289;SDS011;51893;59.754;10.110;2023-04-05T01:43:34;6.90;;;2.30;;
65289;SDS011;51893;59.754;10.110;2023-04-05T01:46:02;4.10;;;1.90;;
65289;SDS011;51893;59.754;10.110;2023-04-05T01:48:29;3.20;;;1.70;;
65289;SDS011;51893;59.754;10.110;2023-04-05T01:50:56;4.00;;;2.00;;
65289;SDS011;51893;59.754;10.110;2023-04-05T01:53:22;2.70;;;1.90;;
65289;SDS011;51893;59.754;10.110;2023-04-05T01:55:49;3.90;;;2.10;;
65289;SDS011;51893;59.754;10.110;2023-04-05T01:58:16;2.70;;;2.10;;
65289;SDS011;51893;59.754;10.110;2023-04-05T02:00:43;1.90;;;1.70;;
65289;SDS011;51893;59.754;10.110;2023-04-05T02:03:10;3.10;;;1.70;;
65289;SDS011;51893;59.754;10.110;2023-04-05T02:05:37;3.70;;;1.80;;
65289;SDS011;51893;59.754;10.110;2023-04-05T02:08:06;4.00;;;1.90;;
65289;SDS011;51893;59.754;10.110;2023-04-05T02:10:32;3.80;;;2.10;;
65289;SDS011;51893;59.754;10.110;2023-04-05T02:13:00;2.20;;;2.00;;
65289;SDS011;51893;59.754;10.110;2023-04-05T02:15:26;8.80;;;1.80;;
65289;SDS011;51893;59.754;10.110;2023-04-05T02:17:54;8.30;;;1.80;;
65289;SDS011;51893;59.754;10.110;2023-04-05T02:20:24;2.60;;;1.40;;
65289;SDS011;51893;59.754;10.110;2023-04-05T02:22:51;2.80;;;1.50;;
65289;SDS011;51893;59.754;10.110;2023-04-05T02:25:19;2.70;;;1.80;;
65289;SDS011;51893;59.754;10.110;2023-04-05T02:27:46;2.20;;;1.50;;
65289;SDS011;51893;59.754;10.110;2023-04-05T02:30:14;2.50;;;1.70;;
65289;SDS011;51893;59.754;10.110;2023-04-05T02:32:41;6.20;;;1.70;;
65289;SDS011;51893;59.754;10.110;2023-04-05T02:35:08;3.00;;;1.70;;
65289;SDS011;51893;59.754;10.110;2023-04-05T02:37:36;2.60;;;1.70;;
65289;SDS011;51893;59.754;10.110;2023-04-05T02:40:05;4.30;;;2.20;;
65289;SDS011;51893;59.754;10.110;2023-04-05T02:42:40;2.50;;;1.70;;
65289;SDS011;51893;59.754;10.110;2023-04-05T02:45:07;2.00;;;1.60;;
65289;SDS011;51893;59.754;10.110;2023-04-05T02:47:34;4.00;;;1.60;;
65289;SDS011;51893;59.754;10.110;2023-04-05T02:50:01;2.90;;;1.60;;
65289;SDS011;51893;59.754;10.110;2023-04-05T02:52:27;2.20;;;1.50;;
65289;SDS011;51893;59.754;10.110;2023-04-05T02:54:57;3.30;;;1.70;;
65289;SDS011;51893;59.754;10.110;2023-04-05T02:57:23;2.30;;;1.60;;
65289;SDS011;51893;59.754;10.110;2023-04-05T02:59:52;2.50;;;1.70;;
65289;SDS011;51893;59.754;10.110;2023-04-05T03:02:22;3.10;;;2.10;;
65289;SDS011;51893;59.754;10.110;2023-04-05T03:04:53;4.40;;;1.80;;
65289;SDS011;51893;59.754;10.110;2023-04-05T03:07:19;3.50;;;1.90;;
65289;SDS011;51893;59.754;10.110;2023-04-05T03:09:47;1.90;;;1.80;;
65289;SDS011;51893;59.754;10.110;2023-04-05T03:12:13;3.70;;;1.80;;
65289;SDS011;51893;59.754;10.110;2023-04-05T03:14:40;4.40;;;2.10;;
65289;SDS011;51893;59.754;10.110;2023-04-05T03:17:08;2.20;;;1.60;;
65289;SDS011;51893;59.754;10.110;2023-04-05T03:19:35;3.10;;;1.90;;
65289;SDS011;51893;59.754;10.110;2023-04-05T03:22:01;3.60;;;1.40;;
65289;SDS011;51893;59.754;10.110;2023-04-05T03:24:29;6.70;;;2.20;;
65289;SDS011;51893;59.754;10.110;2023-04-05T03:27:00;6.60;;;2.10;;
65289;SDS011;51893;59.754;10.110;2023-04-05T03:29:28;4.70;;;1.80;;
65289;SDS011;51893;59.754;10.110;2023-04-05T03:31:57;6.00;;;2.10;;
65289;SDS011;51893;59.754;10.110;2023-04-05T03:34:25;3.70;;;2.00;;
65289;SDS011;51893;59.754;10.110;2023-04-05T03:36:54;6.60;;;1.80;;
65289;SDS011;51893;59.754;10.110;2023-04-05T03:39:21;1.60;;;1.40;;
65289;SDS011;51893;59.754;10.110;2023-04-05T03:41:48;3.40;;;1.70;;
65289;SDS011;51893;59.754;10.110;2023-04-05T03:44:15;9.80;;;2.20;;
65289;SDS011;51893;59.754;10.110;2023-04-05T03:46:41;3.50;;;1.60;;
65289;SDS011;51893;59.754;10.110;2023-04-05T03:49:09;3.00;;;1.70;;
65289;SDS011;51893;59.754;10.110;2023-04-05T03:51:36;7.10;;;2.00;;
65289;SDS011;51893;59.754;10.110;2023-04-05T03:54:03;5.50;;;2.10;;
65289;SDS011;51893;59.754;10.110;2023-04-05T03:56:31;4.50;;;2.00;;
65289;SDS011;51893;59.754;10.110;2023-04-05T03:58:58;9.80;;;1.90;;
65289;SDS011;51893;59.754;10.110;2023-04-05T04:01:24;6.50;;;1.60;;
65289;SDS011;51893;59.754;10.110;2023-04-05T04:03:54;2.80;;;1.40;;
65289;SDS011;51893;59.754;10.110;2023-04-05T04:06:21;3.10;;;2.00;;
65289;SDS011;51893;59.754;10.110;2023-04-05T04:08:52;2.40;;;1.60;;
65289;SDS011;51893;59.754;10.110;2023-04-05T04:11:18;2.80;;;1.70;;
65289;SDS011;51893;59.754;10.110;2023-04-05T04:13:48;4.40;;;1.60;;
65289;SDS011;51893;59.754;10.110;2023-04-05T04:16:15;4.70;;;1.60;;
65289;SDS011;51893;59.754;10.110;2023-04-05T04:18:43;3.50;;;1.90;;
65289;SDS011;51893;59.754;10.110;2023-04-05T04:21:09;5.20;;;1.60;;
65289;SDS011;51893;59.754;10.110;2023-04-05T04:23:39;2.70;;;1.60;;
65289;SDS011;51893;59.754;10.110;2023-04-05T04:26:06;8.10;;;1.70;;
65289;SDS011;51893;59.754;10.110;2023-04-05T04:28:34;2.40;;;1.90;;
65289;SDS011;51893;59.754;10.110;2023-04-05T04:31:04;9.30;;;2.10;;
65289;SDS011;51893;59.754;10.110;2023-04-05T04:33:34;1.90;;;1.50;;
65289;SDS011;51893;59.754;10.110;2023-04-05T04:36:05;3.90;;;2.30;;
65289;SDS011;51893;59.754;10.110;2023-04-05T04:38:34;10.70;;;2.10;;
65289;SDS011;51893;59.754;10.110;2023-04-05T04:41:05;4.50;;;1.80;;
65289;SDS011;51893;59.754;10.110;2023-04-05T04:43:36;3.90;;;1.60;;
65289;SDS011;51893;59.754;10.110;2023-04-05T04:46:10;4.30;;;1.50;;
65289;SDS011;51893;59.754;10.110;2023-04-05T04:48:41;14.40;;;2.30;;
65289;SDS011;51893;59.754;10.110;2023-04-05T04:51:08;4.80;;;1.60;;
65289;SDS011;51893;59.754;10.110;2023-04-05T04:53:35;3.10;;;1.70;;
65289;SDS011;51893;59.754;10.110;2023-04-05T04:56:05;3.80;;;1.80;;
65289;SDS011;51893;59.754;10.110;2023-04-05T04:58:32;4.40;;;2.10;;
65289;SDS011;51893;59.754;10.110;2023-04-05T05:01:00;6.70;;;2.00;;
65289;SDS011;51893;59.754;10.110;2023-04-05T05:03:26;9.30;;;2.00;;
65289;SDS011;51893;59.754;10.110;2023-04-05T05:05:56;7.30;;;2.10;;
65289;SDS011;51893;59.754;10.110;2023-04-05T05:08:24;6.80;;;1.90;;
65289;SDS011;51893;59.754;10.110;2023-04-05T05:10:50;7.80;;;2.30;;
65289;SDS011;51893;59.754;10.110;2023-04-05T05:13:20;4.50;;;1.70;;
65289;SDS011;51893;59.754;10.110;2023-04-05T05:15:46;18.70;;;2.60;;
65289;SDS011;51893;59.754;10.110;2023-04-05T05:18:13;13.30;;;3.00;;
65289;SDS011;51893;59.754;10.110;2023-04-05T05:20:43;9.40;;;2.60;;
65289;SDS011;51893;59.754;10.110;2023-04-05T05:23:09;7.80;;;2.40;;
65289;SDS011;51893;59.754;10.110;2023-04-05T05:25:36;7.40;;;2.00;;
65289;SDS011;51893;59.754;10.110;2023-04-05T05:28:06;7.70;;;2.60;;
65289;SDS011;51893;59.754;10.110;2023-04-05T05:30:34;6.20;;;2.30;;
65289;SDS011;51893;59.754;10.110;2023-04-05T05:33:00;3.80;;;1.80;;
65289;SDS011;51893;59.754;10.110;2023-04-05T05:35:27;2.90;;;1.50;;
65289;SDS011;51893;59.754;10.110;2023-04-05T05:37:54;1.10;;;0.90;;
65289;SDS011;51893;59.754;10.110;2023-04-05T05:40:22;5.40;;;1.90;;
65289;SDS011;51893;59.754;10.110;2023-04-05T05:42:48;3.00;;;1.60;;
65289;SDS011;51893;59.754;10.110;2023-04-05T05:45:15;8.60;;;1.50;;
65289;SDS011;51893;59.754;10.110;2023-04-05T05:47:42;2.80;;;1.90;;
65289;SDS011;51893;59.754;10.110;2023-04-05T05:50:09;2.00;;;1.70;;
65289;SDS011;51893;59.754;10.110;2023-04-05T05:52:36;2.30;;;1.80;;
65289;SDS011;51893;59.754;10.110;2023-04-05T05:55:03;5.10;;;1.90;;
65289;SDS011;51893;59.754;10.110;2023-04-05T05:57:30;7.70;;;2.80;;
65289;SDS011;51893;59.754;10.110;2023-04-05T05:59:57;5.30;;;2.30;;
65289;SDS011;51893;59.754;10.110;2023-04-05T06:02:24;3.40;;;2.10;;
65289;SDS011;51893;59.754;10.110;2023-04-05T06:04:51;2.00;;;1.20;;
65289;SDS011;51893;59.754;10.110;2023-04-05T06:07:20;4.80;;;2.00;;
65289;SDS011;51893;59.754;10.110;2023-04-05T06:09:48;2.50;;;0.90;;
65289;SDS011;51893;59.754;10.110;2023-04-05T06:12:16;5.80;;;1.90;;
65289;SDS011;51893;59.754;10.110;2023-04-05T06:14:42;2.60;;;1.70;;
65289;SDS011;51893;59.754;10.110;2023-04-05T06:17:09;4.00;;;1.60;;
65289;SDS011;51893;59.754;10.110;2023-04-05T06:19:36;7.40;;;1.90;;
65289;SDS011;51893;59.754;10.110;2023-04-05T06:22:03;9.90;;;1.90;;
65289;SDS011;51893;59.754;10.110;2023-04-05T06:24:30;7.10;;;1.50;;
65289;SDS011;51893;59.754;10.110;2023-04-05T06:26:58;2.70;;;2.00;;
65289;SDS011;51893;59.754;10.110;2023-04-05T06:29:27;6.20;;;1.80;;
65289;SDS011;51893;59.754;10.110;2023-04-05T06:31:54;2.20;;;1.60;;
65289;SDS011;51893;59.754;10.110;2023-04-05T06:34:21;8.50;;;2.10;;
65289;SDS011;51893;59.754;10.110;2023-04-05T06:36:48;1.90;;;1.50;;
65289;SDS011;51893;59.754;10.110;2023-04-05T06:39:15;4.00;;;1.30;;
65289;SDS011;51893;59.754;10.110;2023-04-05T06:41:43;1.90;;;1.30;;
65289;SDS011;51893;59.754;10.110;2023-04-05T06:44:09;3.50;;;1.60;;
65289;SDS011;51893;59.754;10.110;2023-04-05T06:46:36;4.40;;;1.80;;
65289;SDS011;51893;59.754;10.110;2023-04-05T06:49:02;2.20;;;1.20;;
65289;SDS011;51893;59.754;10.110;2023-04-05T06:51:30;3.40;;;2.40;;
65289;SDS011;51893;59.754;10.110;2023-04-05T06:53:58;3.30;;;1.40;;
65289;SDS011;51893;59.754;10.110;2023-04-05T06:56:24;3.90;;;1.90;;
65289;SDS011;51893;59.754;10.110;2023-04-05T06:58:51;7.60;;;1.20;;
65289;SDS011;51893;59.754;10.110;2023-04-05T07:01:20;3.60;;;1.60;;
65289;SDS011;51893;59.754;10.110;2023-04-05T07:03:48;6.10;;;1.80;;
65289;SDS011;51893;59.754;10.110;2023-04-05T07:06:14;8.10;;;2.10;;
65289;SDS011;51893;59.754;10.110;2023-04-05T07:08:42;7.80;;;1.60;;
65289;SDS011;51893;59.754;10.110;2023-04-05T07:11:08;5.40;;;2.40;;
65289;SDS011;51893;59.754;10.110;2023-04-05T07:13:35;4.50;;;1.80;;
65289;SDS011;51893;59.754;10.110;2023-04-05T07:16:01;13.90;;;2.00;;
65289;SDS011;51893;59.754;10.110;2023-04-05T07:18:29;4.70;;;1.60;;
65289;SDS011;51893;59.754;10.110;2023-04-05T07:20:57;2.80;;;1.90;;
65289;SDS011;51893;59.754;10.110;2023-04-05T07:23:29;6.50;;;2.00;;
65289;SDS011;51893;59.754;10.110;2023-04-05T07:26:02;3.10;;;1.50;;
65289;SDS011;51893;59.754;10.110;2023-04-05T07:28:33;4.60;;;1.60;;
65289;SDS011;51893;59.754;10.110;2023-04-05T07:31:02;7.00;;;1.60;;
65289;SDS011;51893;59.754;10.110;2023-04-05T07:33:30;6.70;;;2.10;;
65289;SDS011;51893;59.754;10.110;2023-04-05T07:35:57;5.10;;;1.80;;
65289;SDS011;51893;59.754;10.110;2023-04-05T07:38:25;7.00;;;2.10;;
65289;SDS011;51893;59.754;10.110;2023-04-05T07:40:56;6.40;;;1.80;;
65289;SDS011;51893;59.754;10.110;2023-04-05T07:43:24;4.00;;;2.00;;
65289;SDS011;51893;59.754;10.110;2023-04-05T07:45:51;5.90;;;2.10;;
65289;SDS011;51893;59.754;10.110;2023-04-05T07:48:26;6.50;;;1.60;;
65289;SDS011;51893;59.754;10.110;2023-04-05T07:50:52;4.10;;;1.40;;
65289;SDS011;51893;59.754;10.110;2023-04-05T07:53:20;7.60;;;1.70;;
65289;SDS011;51893;59.754;10.110;2023-04-05T07:55:49;5.80;;;1.60;;
65289;SDS011;51893;59.754;10.110;2023-04-05T07:58:16;3.40;;;1.40;;
65289;SDS011;51893;59.754;10.110;2023-04-05T08:00:44;6.70;;;1.50;;
65289;SDS011;51893;59.754;10.110;2023-04-05T08:03:12;7.50;;;1.90;;
65289;SDS011;51893;59.754;10.110;2023-04-05T08:05:41;3.70;;;1.70;;
65289;SDS011;51893;59.754;10.110;2023-04-05T08:08:08;12.80;;;2.10;;
65289;SDS011;51893;59.754;10.110;2023-04-05T08:10:39;3.60;;;1.10;;
65289;SDS011;51893;59.754;10.110;2023-04-05T08:13:06;3.00;;;1.50;;
65289;SDS011;51893;59.754;10.110;2023-04-05T08:15:36;1.70;;;1.00;;
65289;SDS011;51893;59.754;10.110;2023-04-05T08:18:03;1.20;;;1.10;;
65289;SDS011;51893;59.754;10.110;2023-04-05T08:20:30;1.70;;;1.20;;
65289;SDS011;51893;59.754;10.110;2023-04-05T08:22:56;1.60;;;1.00;;
65289;SDS011;51893;59.754;10.110;2023-04-05T08:25:23;1.80;;;1.20;;
65289;SDS011;51893;59.754;10.110;2023-04-05T08:27:54;4.10;;;1.60;;
65289;SDS011;51893;59.754;10.110;2023-04-05T08:30:23;9.90;;;1.70;;
65289;SDS011;51893;59.754;10.110;2023-04-05T08:32:50;8.50;;;1.80;;
65289;SDS011;51893;59.754;10.110;2023-04-05T08:35:20;2.60;;;1.50;;
65289;SDS011;51893;59.754;10.110;2023-04-05T08:37:47;6.40;;;1.40;;
65289;SDS011;51893;59.754;10.110;2023-04-05T08:40:16;2.70;;;1.10;;
65289;SDS011;51893;59.754;10.110;2023-04-05T08:42:59;2.00;;;0.90;;
65289;SDS011;51893;59.754;10.110;2023-04-05T08:45:45;4.80;;;2.00;;
65289;SDS011;51893;59.754;10.110;2023-04-05T08:48:16;2.00;;;1.40;;
65289;SDS011;51893;59.754;10.110;2023-04-05T08:50:53;4.10;;;1.30;;
65289;SDS011;51893;59.754;10.110;2023-04-05T08:53:21;2.80;;;1.40;;
65289;SDS011;51893;59.754;10.110;2023-04-05T08:55:54;4.60;;;1.60;;
65289;SDS011;51893;59.754;10.110;2023-04-05T08:58:23;10.00;;;2.10;;
65289;SDS011;51893;59.754;10.110;2023-04-05T09:00:51;3.70;;;1.60;;
65289;SDS011;51893;59.754;10.110;2023-04-05T09:03:24;5.60;;;1.90;;
65289;SDS011;51893;59.754;10.110;2023-04-05T09:05:58;3.40;;;1.20;;
65289;SDS011;51893;59.754;10.110;2023-04-05T09:08:26;6.90;;;1.50;;
65289;SDS011;51893;59.754;10.110;2023-04-05T09:10:52;5.50;;;1.40;;
65289;SDS011;51893;59.754;10.110;2023-04-05T09:13:20;2.30;;;1.30;;
65289;SDS011;51893;59.754;10.110;2023-04-05T09:15:47;2.80;;;1.30;;
65289;SDS011;51893;59.754;10.110;2023-04-05T09:18:14;4.10;;;1.70;;
65289;SDS011;51893;59.754;10.110;2023-04-05T09:21:01;5.80;;;1.50;;
65289;SDS011;51893;59.754;10.110;2023-04-05T09:23:31;2.60;;;1.30;;
65289;SDS011;51893;59.754;10.110;2023-04-05T09:26:16;9.10;;;1.80;;
65289;SDS011;51893;59.754;10.110;2023-04-05T09:28:48;4.50;;;2.40;;
65289;SDS011;51893;59.754;10.110;2023-04-05T09:31:30;3.90;;;1.60;;
65289;SDS011;51893;59.754;10.110;2023-04-05T09:34:03;6.10;;;1.50;;
65289;SDS011;51893;59.754;10.110;2023-04-05T09:36:34;8.30;;;1.60;;
65289;SDS011;51893;59.754;10.110;2023-04-05T09:39:04;4.90;;;1.50;;
65289;SDS011;51893;59.754;10.110;2023-04-05T09:41:33;2.80;;;1.30;;
65289;SDS011;51893;59.754;10.110;2023-04-05T09:44:04;1.80;;;1.30;;
65289;SDS011;51893;59.754;10.110;2023-04-05T09:46:34;5.00;;;1.60;;
65289;SDS011;51893;59.754;10.110;2023-04-05T09:49:04;1.50;;;1.00;;
65289;SDS011;51893;59.754;10.110;2023-04-05T09:51:36;3.90;;;1.50;;
65289;SDS011;51893;59.754;10.110;2023-04-05T09:54:06;3.80;;;1.30;;
65289;SDS011;51893;59.754;10.110;2023-04-05T09:56:36;8.70;;;1.70;;
65289;SDS011;51893;59.754;10.110;2023-04-05T09:59:19;3.30;;;1.50;;
65289;SDS011;51893;59.754;10.110;2023-04-05T10:01:50;6.60;;;1.40;;
65289;SDS011;51893;59.754;10.110;2023-04-05T10:04:20;5.90;;;1.50;;
65289;SDS011;51893;59.754;10.110;2023-04-05T10:06:50;5.50;;;1.20;;
65289;SDS011;51893;59.754;10.110;2023-04-05T10:09:17;2.60;;;1.60;;
65289;SDS011;51893;59.754;10.110;2023-04-05T10:11:45;4.60;;;1.30;;
65289;SDS011;51893;59.754;10.110;2023-04-05T10:14:12;1.70;;;1.20;;
65289;SDS011;51893;59.754;10.110;2023-04-05T10:17:07;2.60;;;1.20;;
65289;SDS011;51893;59.754;10.110;2023-04-05T10:28:42;8.60;;;1.80;;
65289;SDS011;51893;59.754;10.110;2023-04-05T10:34:11;7.40;;;1.90;;
65289;SDS011;51893;59.754;10.110;2023-04-05T10:36:59;3.40;;;1.50;;
65289;SDS011;51893;59.754;10.110;2023-04-05T10:39:34;7.80;;;1.80;;
65289;SDS011;51893;59.754;10.110;2023-04-05T10:42:26;10.40;;;2.00;;
65289;SDS011;51893;59.754;10.110;2023-04-05T10:45:00;4.00;;;1.80;;
65289;SDS011;51893;59.754;10.110;2023-04-05T10:47:31;5.60;;;2.20;;
65289;SDS011;51893;59.754;10.110;2023-04-05T10:50:07;6.80;;;1.80;;
65289;SDS011;51893;59.754;10.110;2023-04-05T10:52:38;8.50;;;1.80;;
65289;SDS011;51893;59.754;10.110;2023-04-05T10:55:07;6.00;;;1.80;;
65289;SDS011;51893;59.754;10.110;2023-04-05T10:57:38;6.50;;;1.80;;
65289;SDS011;51893;59.754;10.110;2023-04-05T11:00:06;8.60;;;2.00;;
65289;SDS011;51893;59.754;10.110;2023-04-05T11:02:33;15.70;;;2.50;;
65289;SDS011;51893;59.754;10.110;2023-04-05T11:05:05;5.60;;;1.80;;
65289;SDS011;51893;59.754;10.110;2023-04-05T11:07:42;4.90;;;2.00;;
65289;SDS011;51893;59.754;10.110;2023-04-05T11:10:18;4.90;;;2.00;;
65289;SDS011;51893;59.754;10.110;2023-04-05T11:21:06;14.30;;;4.80;;
65289;SDS011;51893;59.754;10.110;2023-04-05T11:24:06;9.70;;;4.80;;
65289;SDS011;51893;59.754;10.110;2023-04-05T11:29:08;7.20;;;2.70;;
65289;SDS011;51893;59.754;10.110;2023-04-05T11:31:59;10.60;;;3.60;;
65289;SDS011;51893;59.754;10.110;2023-04-05T11:34:35;6.60;;;2.90;;
65289;SDS011;51893;59.754;10.110;2023-04-05T11:37:02;12.10;;;3.10;;
65289;SDS011;51893;59.754;10.110;2023-04-05T11:39:29;12.70;;;5.30;;
65289;SDS011;51893;59.754;10.110;2023-04-05T11:42:02;9.80;;;4.50;;
65289;SDS011;51893;59.754;10.110;2023-04-05T11:44:47;16.00;;;4.50;;
65289;SDS011;51893;59.754;10.110;2023-04-05T11:47:19;9.20;;;4.30;;
65289;SDS011;51893;59.754;10.110;2023-04-05T11:49:49;14.30;;;3.40;;
65289;SDS011;51893;59.754;10.110;2023-04-05T11:52:19;18.60;;;3.20;;
65289;SDS011;51893;59.754;10.110;2023-04-05T11:54:47;14.80;;;3.90;;
65289;SDS011;51893;59.754;10.110;2023-04-05T11:57:22;11.50;;;3.40;;
65289;SDS011;51893;59.754;10.110;2023-04-05T11:59:51;10.60;;;4.50;;
65289;SDS011;51893;59.754;10.110;2023-04-05T12:02:19;7.30;;;2.80;;
65289;SDS011;51893;59.754;10.110;2023-04-05T12:04:55;8.60;;;2.40;;
65289;SDS011;51893;59.754;10.110;2023-04-05T12:07:28;4.10;;;1.30;;
65289;SDS011;51893;59.754;10.110;2023-04-05T12:12:40;4.50;;;0.90;;
65289;SDS011;51893;59.754;10.110;2023-04-05T12:15:12;1.90;;;0.80;;
65289;SDS011;51893;59.754;10.110;2023-04-05T12:17:47;12.00;;;0.90;;
65289;SDS011;51893;59.754;10.110;2023-04-05T12:20:19;4.00;;;0.60;;
65289;SDS011;51893;59.754;10.110;2023-04-05T12:22:51;3.80;;;0.70;;
65289;SDS011;51893;59.754;10.110;2023-04-05T12:25:20;5.40;;;0.80;;
65289;SDS011;51893;59.754;10.110;2023-04-05T12:27:48;1.30;;;0.70;;
65289;SDS011;51893;59.754;10.110;2023-04-05T12:30:17;2.90;;;0.60;;
65289;SDS011;51893;59.754;10.110;2023-04-05T12:32:53;1.00;;;0.70;;
65289;SDS011;51893;59.754;10.110;2023-04-05T12:35:27;1.20;;;0.50;;
65289;SDS011;51893;59.754;10.110;2023-04-05T12:38:01;2.00;;;0.80;;
65289;SDS011;51893;59.754;10.110;2023-04-05T12:40:34;7.30;;;0.90;;
65289;SDS011;51893;59.754;10.110;2023-04-05T12:43:04;5.30;;;1.20;;
65289;SDS011;51893;59.754;10.110;2023-04-05T12:45:35;4.60;;;0.70;;
65289;SDS011;51893;59.754;10.110;2023-04-05T12:48:09;1.30;;;0.70;;
65289;SDS011;51893;59.754;10.110;2023-04-05T12:50:43;3.40;;;0.70;;
65289;SDS011;51893;59.754;10.110;2023-04-05T12:53:16;3.30;;;0.80;;
65289;SDS011;51893;59.754;10.110;2023-04-05T12:55:50;1.60;;;0.70;;
65289;SDS011;51893;59.754;10.110;2023-04-05T12:58:31;5.30;;;0.70;;
65289;SDS011;51893;59.754;10.110;2023-04-05T13:01:03;2.20;;;0.70;;
65289;SDS011;51893;59.754;10.110;2023-04-05T13:03:32;1.70;;;0.40;;
65289;SDS011;51893;59.754;10.110;2023-04-05T13:06:00;2.90;;;0.70;;
65289;SDS011;51893;59.754;10.110;2023-04-05T13:08:28;1.00;;;0.50;;
65289;SDS011;51893;59.754;10.110;2023-04-05T13:10:56;1.50;;;0.60;;
65289;SDS011;51893;59.754;10.110;2023-04-05T13:13:25;2.30;;;0.60;;
65289;SDS011;51893;59.754;10.110;2023-04-05T13:15:53;2.90;;;0.60;;
65289;SDS011;51893;59.754;10.110;2023-04-05T13:18:20;3.00;;;0.60;;
65289;SDS011;51893;59.754;10.110;2023-04-05T13:20:47;6.60;;;0.60;;
65289;SDS011;51893;59.754;10.110;2023-04-05T13:23:14;4.10;;;0.50;;
65289;SDS011;51893;59.754;10.110;2023-04-05T13:25:42;1.00;;;0.40;;
65289;SDS011;51893;59.754;10.110;2023-04-05T13:28:12;2.00;;;0.60;;
65289;SDS011;51893;59.754;10.110;2023-04-05T13:30:39;0.80;;;0.70;;
65289;SDS011;51893;59.754;10.110;2023-04-05T13:33:07;0.70;;;0.50;;
65289;SDS011;51893;59.754;10.110;2023-04-05T13:35:34;0.60;;;0.60;;
65289;SDS011;51893;59.754;10.110;2023-04-05T13:38:00;0.50;;;0.50;;
65289;SDS011;51893;59.754;10.110;2023-04-05T13:40:31;1.30;;;0.60;;
65289;SDS011;51893;59.754;10.110;2023-04-05T13:42:58;2.30;;;0.60;;
65289;SDS011;51893;59.754;10.110;2023-04-05T13:45:26;4.00;;;0.80;;
65289;SDS011;51893;59.754;10.110;2023-04-05T13:47:54;0.60;;;0.60;;
65289;SDS011;51893;59.754;10.110;2023-04-05T13:50:21;2.60;;;0.60;;
65289;SDS011;51893;59.754;10.110;2023-04-05T13:52:50;1.70;;;0.70;;
65289;SDS011;51893;59.754;10.110;2023-04-05T13:55:17;2.80;;;0.60;;
65289;SDS011;51893;59.754;10.110;2023-04-05T13:57:47;0.90;;;0.50;;
65289;SDS011;51893;59.754;10.110;2023-04-05T14:00:14;0.90;;;0.70;;
65289;SDS011;51893;59.754;10.110;2023-04-05T14:02:41;6.20;;;0.70;;
65289;SDS011;51893;59.754;10.110;2023-04-05T14:05:08;6.10;;;0.60;;
65289;SDS011;51893;59.754;10.110;2023-04-05T14:07:36;4.80;;;0.70;;
65289;SDS011;51893;59.754;10.110;2023-04-05T14:10:04;3.50;;;0.70;;
65289;SDS011;51893;59.754;10.110;2023-04-05T14:12:32;5.00;;;0.70;;
65289;SDS011;51893;59.754;10.110;2023-04-05T14:14:59;3.00;;;0.50;;
65289;SDS011;51893;59.754;10.110;2023-04-05T14:17:26;2.80;;;0.70;;
65289;SDS011;51893;59.754;10.110;2023-04-05T14:19:56;1.80;;;0.60;;
65289;SDS011;51893;59.754;10.110;2023-04-05T14:22:22;0.70;;;0.50;;
65289;SDS011;51893;59.754;10.110;2023-04-05T14:24:50;2.50;;;0.50;;
65289;SDS011;51893;59.754;10.110;2023-04-05T14:27:17;2.30;;;0.50;;
65289;SDS011;51893;59.754;10.110;2023-04-05T14:29:50;2.40;;;0.70;;
65289;SDS011;51893;59.754;10.110;2023-04-05T14:32:19;3.60;;;1.10;;
65289;SDS011;51893;59.754;10.110;2023-04-05T14:34:47;0.80;;;0.70;;
65289;SDS011;51893;59.754;10.110;2023-04-05T14:37:14;3.40;;;0.80;;
65289;SDS011;51893;59.754;10.110;2023-04-05T14:39:40;0.80;;;0.50;;
65289;SDS011;51893;59.754;10.110;2023-04-05T14:42:07;9.30;;;0.70;;
65289;SDS011;51893;59.754;10.110;2023-04-05T14:44:36;0.40;;;0.40;;
65289;SDS011;51893;59.754;10.110;2023-04-05T14:47:04;7.00;;;0.60;;
65289;SDS011;51893;59.754;10.110;2023-04-05T14:49:30;2.40;;;1.00;;
65289;SDS011;51893;59.754;10.110;2023-04-05T14:51:57;6.40;;;1.50;;
65289;SDS011;51893;59.754;10.110;2023-04-05T14:54:24;1.00;;;0.60;;
65289;SDS011;51893;59.754;10.110;2023-04-05T14:56:51;1.80;;;0.40;;
65289;SDS011;51893;59.754;10.110;2023-04-05T14:59:19;1.90;;;0.90;;
65289;SDS011;51893;59.754;10.110;2023-04-05T15:01:48;4.70;;;0.60;;
65289;SDS011;51893;59.754;10.110;2023-04-05T15:04:15;0.60;;;0.50;;
65289;SDS011;51893;59.754;10.110;2023-04-05T15:06:44;5.00;;;0.50;;
65289;SDS011;51893;59.754;10.110;2023-04-05T15:09:17;0.50;;;0.50;;
65289;SDS011;51893;59.754;10.110;2023-04-05T15:11:45;0.50;;;0.50;;
65289;SDS011;51893;59.754;10.110;2023-04-05T15:14:13;0.50;;;0.50;;
65289;SDS011;51893;59.754;10.110;2023-04-05T15:16:55;1.40;;;0.90;;
65289;SDS011;51893;59.754;10.110;2023-04-05T15:19:33;0.80;;;0.60;;
65289;SDS011;51893;59.754;10.110;2023-04-05T15:22:04;4.40;;;0.80;;